createdAt,value
2019-01-11T00:00:05.548Z,-1.62
2019-01-11T00:01:05.703Z,-1.62
2019-01-11T00:02:05.885Z,-1.62
2019-01-11T00:03:05.878Z,-1.62
2019-01-11T00:04:06.034Z,-1.62
2019-01-11T00:05:05.064Z,-1.62
2019-01-11T00:06:05.224Z,-1.62
2019-01-11T00:07:05.943Z,-1.62
2019-01-11T00:08:05.151Z,-1.62
2019-01-11T00:09:05.471Z,-1.62
2019-01-11T00:10:05.960Z,-1.62
2019-01-11T00:11:06.114Z,-1.62
2019-01-11T00:12:05.078Z,-1.62
2019-01-11T00:13:05.332Z,-1.62
2019-01-11T00:14:05.225Z,-1.62
2019-01-11T00:15:06.031Z,-1.62
2019-01-11T00:16:05.962Z,-1.62
2019-01-11T00:17:05.135Z,-1.62
2019-01-11T00:18:05.638Z,-1.62
2019-01-11T00:19:07.137Z,-1.62
2019-01-11T00:20:05.791Z,-1.62
2019-01-11T00:21:05.152Z,-1.62
2019-01-11T00:22:05.559Z,-1.62
2019-01-11T00:23:05.800Z,-1.62
2019-01-11T00:24:05.789Z,-1.62
2019-01-11T00:25:05.954Z,-1.62
2019-01-11T00:26:05.321Z,-1.62
2019-01-11T00:27:05.564Z,-1.62
2019-01-11T00:28:06.040Z,-1.62
2019-01-11T00:29:05.072Z,-1.62
2019-01-11T00:30:05.704Z,-1.69
2019-01-11T00:31:05.301Z,-1.62
2019-01-11T00:32:05.953Z,-1.62
2019-01-11T00:33:05.326Z,-1.69
2019-01-11T00:34:05.783Z,-1.69
2019-01-11T00:35:05.315Z,-1.69
2019-01-11T00:36:05.967Z,-1.69
2019-01-11T00:37:05.385Z,-1.69
2019-01-11T00:38:06.197Z,-1.69
2019-01-11T00:39:05.239Z,-1.75
2019-01-11T00:40:05.225Z,-1.75
2019-01-11T00:41:05.382Z,-1.75
2019-01-11T00:42:05.065Z,-1.75
2019-01-11T00:43:05.301Z,-1.75
2019-01-11T00:44:05.389Z,-1.75
2019-01-11T00:45:05.462Z,-1.75
2019-01-11T00:46:05.459Z,-1.75
2019-01-11T00:47:05.627Z,-1.81
2019-01-11T00:48:06.027Z,-1.81
2019-01-11T00:49:05.239Z,-1.81
2019-01-11T00:50:05.069Z,-1.81
2019-01-11T00:51:05.262Z,-1.81
2019-01-11T00:52:05.305Z,-1.81
2019-01-11T00:53:05.548Z,-1.88
2019-01-11T00:54:05.322Z,-1.88
2019-01-11T00:55:06.036Z,-1.81
2019-01-11T00:56:05.643Z,-1.81
2019-01-11T00:57:05.640Z,-1.81
2019-01-11T00:58:05.948Z,-1.81
2019-01-11T00:59:05.327Z,-1.81
2019-01-11T01:00:05.705Z,-1.81
2019-01-11T01:01:05.347Z,-1.88
2019-01-11T01:02:05.645Z,-1.88
2019-01-11T01:03:05.167Z,-1.88
2019-01-11T01:04:05.242Z,-1.88
2019-01-11T01:05:05.309Z,-1.88
2019-01-11T01:06:06.035Z,-1.88
2019-01-11T01:07:05.804Z,-1.88
2019-01-11T01:08:05.155Z,-1.88
2019-01-11T01:09:05.329Z,-1.94
2019-01-11T01:10:06.020Z,-1.94
2019-01-11T01:11:05.475Z,-1.94
2019-01-11T01:12:05.553Z,-1.88
2019-01-11T01:13:05.725Z,-1.88
2019-01-11T01:14:05.711Z,-1.94
2019-01-11T01:15:05.954Z,-1.88
2019-01-11T01:16:05.150Z,-1.88
2019-01-11T01:17:05.152Z,-1.88
2019-01-11T01:18:05.395Z,-1.88
2019-01-11T01:19:05.816Z,-1.88
2019-01-11T01:20:05.973Z,-1.88
2019-01-11T01:21:05.484Z,-1.88
2019-01-11T01:22:05.544Z,-1.88
2019-01-11T01:23:05.792Z,-1.88
2019-01-11T01:24:05.065Z,-1.88
2019-01-11T01:25:05.238Z,-1.88
2019-01-11T01:26:05.320Z,-1.88
2019-01-11T01:27:05.295Z,-1.88
2019-01-11T01:28:05.788Z,-1.88
2019-01-11T01:29:06.031Z,-1.88
2019-01-11T01:30:05.300Z,-1.88
2019-01-11T01:31:05.382Z,-1.88
2019-01-11T01:32:05.462Z,-1.88
2019-01-11T01:33:05.787Z,-1.88
2019-01-11T01:34:05.064Z,-1.81
2019-01-11T01:35:05.796Z,-1.81
2019-01-11T01:36:05.692Z,-1.81
2019-01-11T01:37:05.565Z,-1.81
2019-01-11T01:38:05.541Z,-1.81
2019-01-11T01:39:05.708Z,-1.81
2019-01-11T01:40:05.950Z,-1.81
2019-01-11T01:41:05.225Z,-1.81
2019-01-11T01:42:05.776Z,-1.81
2019-01-11T01:43:05.947Z,-1.81
2019-01-11T01:44:05.459Z,-1.81
2019-01-11T01:45:05.871Z,-1.81
2019-01-11T01:46:06.119Z,-1.81
2019-01-11T01:47:06.025Z,-1.75
2019-01-11T01:48:05.625Z,-1.75
2019-01-11T01:49:10.313Z,-1.75
2019-01-11T01:50:05.789Z,-1.75
2019-01-11T01:51:05.709Z,-1.75
2019-01-11T01:52:05.948Z,-1.75
2019-01-11T01:53:06.050Z,-1.75
2019-01-11T01:54:06.035Z,-1.75
2019-01-11T01:55:05.469Z,-1.75
2019-01-11T01:56:05.701Z,-1.75
2019-01-11T01:57:05.392Z,-1.75
2019-01-11T01:58:05.710Z,-1.75
2019-01-11T01:59:05.146Z,-1.75
2019-01-11T02:00:05.628Z,-1.75
2019-01-11T02:01:05.730Z,-1.75
2019-01-11T02:02:05.791Z,-1.75
2019-01-11T02:03:05.872Z,-1.75
2019-01-11T02:04:05.949Z,-1.75
2019-01-11T02:05:05.394Z,-1.75
2019-01-11T02:06:05.719Z,-1.75
2019-01-11T02:07:05.952Z,-1.69
2019-01-11T02:08:05.224Z,-1.69
2019-01-11T02:09:05.541Z,-1.69
2019-01-11T02:10:05.408Z,-1.69
2019-01-11T02:11:05.323Z,-1.69
2019-01-11T02:12:05.505Z,-1.69
2019-01-11T02:13:05.307Z,-1.69
2019-01-11T02:14:05.950Z,-1.69
2019-01-11T02:15:06.199Z,-1.69
2019-01-11T02:16:05.142Z,-1.69
2019-01-11T02:17:05.401Z,-1.69
2019-01-11T02:18:05.958Z,-1.69
2019-01-11T02:19:05.945Z,-1.69
2019-01-11T02:20:06.031Z,-1.69
2019-01-11T02:21:05.162Z,-1.69
2019-01-11T02:22:05.717Z,-1.69
2019-01-11T02:23:05.235Z,-1.62
2019-01-11T02:24:05.551Z,-1.62
2019-01-11T02:25:05.796Z,-1.62
2019-01-11T02:26:05.356Z,-1.62
2019-01-11T02:27:05.954Z,-1.62
2019-01-11T02:28:05.314Z,-1.62
2019-01-11T02:29:05.469Z,-1.62
2019-01-11T02:30:05.894Z,-1.62
2019-01-11T02:31:06.034Z,-1.62
2019-01-11T02:32:05.230Z,-1.62
2019-01-11T02:33:05.309Z,-1.62
2019-01-11T02:34:05.888Z,-1.62
2019-01-11T02:35:05.896Z,-1.62
2019-01-11T02:36:06.941Z,-1.56
2019-01-11T02:37:05.240Z,-1.56
2019-01-11T02:38:06.775Z,-1.56
2019-01-11T02:39:06.047Z,-1.56
2019-01-11T02:40:05.069Z,-1.56
2019-01-11T02:41:05.555Z,-1.62
2019-01-11T02:42:05.635Z,-1.62
2019-01-11T02:43:05.327Z,-1.62
2019-01-11T02:44:05.782Z,-1.62
2019-01-11T02:45:05.334Z,-1.62
2019-01-11T02:46:05.464Z,-1.62
2019-01-11T02:47:05.708Z,-1.56
2019-01-11T02:48:05.795Z,-1.56
2019-01-11T02:49:05.147Z,-1.56
2019-01-11T02:50:05.489Z,-1.56
2019-01-11T02:51:05.632Z,-1.56
2019-01-11T02:52:05.315Z,-1.56
2019-01-11T02:53:05.517Z,-1.56
2019-01-11T02:54:05.469Z,-1.56
2019-01-11T02:55:05.403Z,-1.56
2019-01-11T02:56:05.470Z,-1.56
2019-01-11T02:57:05.074Z,-1.56
2019-01-11T02:58:05.569Z,-1.56
2019-01-11T02:59:05.650Z,-1.56
2019-01-11T03:00:05.551Z,-1.56
2019-01-11T03:01:05.245Z,-1.56
2019-01-11T03:02:05.318Z,-1.56
2019-01-11T03:03:05.490Z,-1.56
2019-01-11T03:04:05.473Z,-1.56
2019-01-11T03:05:05.715Z,-1.56
2019-01-11T03:06:05.069Z,-1.56
2019-01-11T03:07:05.481Z,-1.56
2019-01-11T03:08:06.138Z,-1.56
2019-01-11T03:09:05.245Z,-1.50
2019-01-11T03:10:05.670Z,-1.56
2019-01-11T03:11:05.945Z,-1.56
2019-01-11T03:12:05.311Z,-1.50
2019-01-11T03:13:05.550Z,-1.50
2019-01-11T03:14:06.063Z,-1.50
2019-01-11T03:15:05.076Z,-1.50
2019-01-11T03:16:05.886Z,-1.50
2019-01-11T03:17:05.936Z,-1.50
2019-01-11T03:18:05.950Z,-1.50
2019-01-11T03:19:05.248Z,-1.50
2019-01-11T03:20:05.640Z,-1.50
2019-01-11T03:21:05.397Z,-1.50
2019-01-11T03:22:05.808Z,-1.50
2019-01-11T03:23:05.234Z,-1.50
2019-01-11T03:24:05.226Z,-1.50
2019-01-11T03:25:05.885Z,-1.50
2019-01-11T03:26:05.864Z,-1.50
2019-01-11T03:27:05.419Z,-1.50
2019-01-11T03:28:05.390Z,-1.50
2019-01-11T03:29:05.394Z,-1.50
2019-01-11T03:30:05.969Z,-1.50
2019-01-11T03:31:05.716Z,-1.50
2019-01-11T03:32:05.345Z,-1.50
2019-01-11T03:33:05.310Z,-1.50
2019-01-11T03:34:05.948Z,-1.50
2019-01-11T03:35:05.713Z,-1.50
2019-01-11T03:36:05.805Z,-1.50
2019-01-11T03:37:05.478Z,-1.50
2019-01-11T03:38:05.796Z,-1.50
2019-01-11T03:39:05.063Z,-1.50
2019-01-11T03:40:05.231Z,-1.50
2019-01-11T03:41:05.958Z,-1.50
2019-01-11T03:42:05.222Z,-1.50
2019-01-11T03:43:05.888Z,-1.50
2019-01-11T03:44:05.328Z,-1.50
2019-01-11T03:45:05.479Z,-1.50
2019-01-11T03:46:05.963Z,-1.50
2019-01-11T03:47:05.392Z,-1.50
2019-01-11T03:48:05.568Z,-1.50
2019-01-11T03:49:05.702Z,-1.50
2019-01-11T03:50:06.114Z,-1.50
2019-01-11T03:51:05.268Z,-1.50
2019-01-11T03:52:05.318Z,-1.50
2019-01-11T03:53:05.565Z,-1.50
2019-01-11T03:54:05.707Z,-1.50
2019-01-11T03:55:05.789Z,-1.50
2019-01-11T03:56:05.311Z,-1.50
2019-01-11T03:57:05.550Z,-1.50
2019-01-11T03:58:05.076Z,-1.50
2019-01-11T03:59:05.318Z,-1.50
2019-01-11T04:00:05.549Z,-1.50
2019-01-11T04:01:05.078Z,-1.50
2019-01-11T04:02:05.390Z,-1.50
2019-01-11T04:03:05.785Z,-1.50
2019-01-11T04:04:06.141Z,-1.50
2019-01-11T04:05:05.159Z,-1.50
2019-01-11T04:06:05.222Z,-1.50
2019-01-11T04:07:05.470Z,-1.50
2019-01-11T04:08:05.714Z,-1.44
2019-01-11T04:09:05.803Z,-1.50
2019-01-11T04:10:06.046Z,-1.50
2019-01-11T04:11:05.155Z,-1.44
2019-01-11T04:12:05.568Z,-1.50
2019-01-11T04:13:05.248Z,-1.50
2019-01-11T04:14:05.630Z,-1.50
2019-01-11T04:15:05.418Z,-1.44
2019-01-11T04:16:05.564Z,-1.50
2019-01-11T04:17:06.206Z,-1.50
2019-01-11T04:18:05.141Z,-1.50
2019-01-11T04:19:05.716Z,-1.50
2019-01-11T04:20:05.883Z,-1.50
2019-01-11T04:21:05.877Z,-1.50
2019-01-11T04:22:05.227Z,-1.50
2019-01-11T04:23:05.717Z,-1.50
2019-01-11T04:24:05.940Z,-1.50
2019-01-11T04:25:05.478Z,-1.50
2019-01-11T04:26:05.953Z,-1.44
2019-01-11T04:27:05.323Z,-1.44
2019-01-11T04:28:05.869Z,-1.44
2019-01-11T04:29:06.055Z,-1.44
2019-01-11T04:30:05.638Z,-1.44
2019-01-11T04:31:06.047Z,-1.44
2019-01-11T04:32:05.084Z,-1.44
2019-01-11T04:33:05.627Z,-1.44
2019-01-11T04:34:05.784Z,-1.44
2019-01-11T04:35:05.866Z,-1.44
2019-01-11T04:36:05.475Z,-1.44
2019-01-11T04:37:05.956Z,-1.44
2019-01-11T04:38:05.110Z,-1.44
2019-01-11T04:39:05.563Z,-1.44
2019-01-11T04:40:05.728Z,-1.44
2019-01-11T04:41:05.551Z,-1.44
2019-01-11T04:42:05.628Z,-1.44
2019-01-11T04:43:05.790Z,-1.44
2019-01-11T04:44:06.033Z,-1.44
2019-01-11T04:45:05.700Z,-1.44
2019-01-11T04:46:05.163Z,-1.44
2019-01-11T04:47:05.476Z,-1.44
2019-01-11T04:48:06.037Z,-1.44
2019-01-11T04:49:05.146Z,-1.44
2019-01-11T04:50:09.262Z,-1.44
2019-01-11T04:51:05.163Z,-1.44
2019-01-11T04:52:05.398Z,-1.44
2019-01-11T04:53:05.783Z,-1.44
2019-01-11T04:54:05.234Z,-1.44
2019-01-11T04:55:05.390Z,-1.44
2019-01-11T04:56:05.143Z,-1.44
2019-01-11T04:57:05.307Z,-1.44
2019-01-11T04:58:06.707Z,-1.44
2019-01-11T04:59:05.393Z,-1.44
2019-01-11T05:00:05.728Z,-1.44
2019-01-11T05:01:06.025Z,-1.44
2019-01-11T05:02:05.066Z,-1.44
2019-01-11T05:03:05.230Z,-1.38
2019-01-11T05:04:05.402Z,-1.38
2019-01-11T05:05:05.400Z,-1.44
2019-01-11T05:06:05.556Z,-1.44
2019-01-11T05:07:05.540Z,-1.44
2019-01-11T05:08:05.065Z,-1.38
2019-01-11T05:09:05.247Z,-1.44
2019-01-11T05:10:05.791Z,-1.38
2019-01-11T05:11:05.222Z,-1.38
2019-01-11T05:12:05.494Z,-1.38
2019-01-11T05:13:05.552Z,-1.38
2019-01-11T05:14:05.711Z,-1.38
2019-01-11T05:15:05.319Z,-1.38
2019-01-11T05:16:05.877Z,-1.38
2019-01-11T05:17:05.945Z,-1.38
2019-01-11T05:18:05.153Z,-1.38
2019-01-11T05:19:05.780Z,-1.38
2019-01-11T05:20:05.301Z,-1.38
2019-01-11T05:21:05.395Z,-1.38
2019-01-11T05:22:05.633Z,-1.38
2019-01-11T05:23:06.046Z,-1.38
2019-01-11T05:24:06.082Z,-1.38
2019-01-11T05:25:05.963Z,-1.38
2019-01-11T05:26:05.403Z,-1.38
2019-01-11T05:27:05.565Z,-1.38
2019-01-11T05:28:05.559Z,-1.38
2019-01-11T05:29:05.965Z,-1.31
2019-01-11T05:30:06.031Z,-1.31
2019-01-11T05:31:05.508Z,-1.31
2019-01-11T05:32:05.732Z,-1.31
2019-01-11T05:33:05.070Z,-1.31
2019-01-11T05:34:05.635Z,-1.31
2019-01-11T05:35:05.804Z,-1.31
2019-01-11T05:36:05.900Z,-1.31
2019-01-11T05:37:05.150Z,-1.31
2019-01-11T05:38:05.390Z,-1.31
2019-01-11T05:39:06.121Z,-1.31
2019-01-11T05:40:06.152Z,-1.31
2019-01-11T05:41:05.230Z,-1.25
2019-01-11T05:42:05.562Z,-1.31
2019-01-11T05:43:05.576Z,-1.25
2019-01-11T05:44:05.738Z,-1.25
2019-01-11T05:45:05.943Z,-1.25
2019-01-11T05:46:05.238Z,-1.25
2019-01-11T05:47:05.711Z,-1.25
2019-01-11T05:48:05.227Z,-1.25
2019-01-11T05:49:05.386Z,-1.25
2019-01-11T05:50:05.627Z,-1.25
2019-01-11T05:51:05.632Z,-1.25
2019-01-11T05:52:05.862Z,-1.25
2019-01-11T05:53:05.393Z,-1.25
2019-01-11T05:54:05.956Z,-1.25
2019-01-11T05:55:06.120Z,-1.25
2019-01-11T05:56:05.630Z,-1.25
2019-01-11T05:57:05.973Z,-1.25
2019-01-11T05:58:05.879Z,-1.25
2019-01-11T05:59:05.942Z,-1.25
2019-01-11T06:00:05.476Z,-1.25
2019-01-11T06:01:05.558Z,-1.25
2019-01-11T06:02:05.544Z,-1.19
2019-01-11T06:03:05.301Z,-1.25
2019-01-11T06:04:05.871Z,-1.25
2019-01-11T06:05:05.247Z,-1.19
2019-01-11T06:06:05.161Z,-1.25
2019-01-11T06:07:05.554Z,-1.19
2019-01-11T06:08:05.250Z,-1.19
2019-01-11T06:09:05.235Z,-1.19
2019-01-11T06:10:05.400Z,-1.19
2019-01-11T06:11:05.472Z,-1.19
2019-01-11T06:12:05.552Z,-1.19
2019-01-11T06:13:05.238Z,-1.19
2019-01-11T06:14:05.311Z,-1.19
2019-01-11T06:15:05.953Z,-1.19
2019-01-11T06:16:05.243Z,-1.19
2019-01-11T06:17:05.484Z,-1.19
2019-01-11T06:18:05.470Z,-1.19
2019-01-11T06:19:05.869Z,-1.19
2019-01-11T06:20:05.071Z,-1.19
2019-01-11T06:21:05.726Z,-1.19
2019-01-11T06:22:05.797Z,-1.19
2019-01-11T06:23:05.243Z,-1.19
2019-01-11T06:24:05.715Z,-1.19
2019-01-11T06:25:05.385Z,-1.12
2019-01-11T06:26:05.868Z,-1.12
2019-01-11T06:27:05.316Z,-1.12
2019-01-11T06:28:05.726Z,-1.12
2019-01-11T06:29:05.716Z,-1.12
2019-01-11T06:30:05.785Z,-1.12
2019-01-11T06:31:05.943Z,-1.12
2019-01-11T06:32:05.727Z,-1.12
2019-01-11T06:33:05.707Z,-1.12
2019-01-11T06:34:05.739Z,-1.12
2019-01-11T06:35:05.868Z,-1.12
2019-01-11T06:36:05.468Z,-1.06
2019-01-11T06:37:05.798Z,-1.06
2019-01-11T06:38:05.812Z,-1.06
2019-01-11T06:39:05.951Z,-1.06
2019-01-11T06:40:05.147Z,-1.06
2019-01-11T06:41:05.315Z,-1.06
2019-01-11T06:42:05.311Z,-1.06
2019-01-11T06:43:05.379Z,-1.06
2019-01-11T06:44:05.966Z,-1.06
2019-01-11T06:45:06.035Z,-1.06
2019-01-11T06:46:05.590Z,-1.06
2019-01-11T06:47:05.791Z,-1.06
2019-01-11T06:48:05.886Z,-1.06
2019-01-11T06:49:06.028Z,-1.00
2019-01-11T06:50:05.258Z,-1.00
2019-01-11T06:51:05.229Z,-1.00
2019-01-11T06:52:06.059Z,-1.00
2019-01-11T06:53:05.071Z,-1.00
2019-01-11T06:54:05.398Z,-1.00
2019-01-11T06:55:05.793Z,-1.00
2019-01-11T06:56:06.034Z,-1.00
2019-01-11T06:57:05.890Z,-1.00
2019-01-11T06:58:06.106Z,-0.94
2019-01-11T06:59:05.234Z,-0.94
2019-01-11T07:00:05.224Z,-0.94
2019-01-11T07:01:05.708Z,-0.94
2019-01-11T07:02:05.962Z,-0.94
2019-01-11T07:03:05.991Z,-0.94
2019-01-11T07:04:05.560Z,-0.94
2019-01-11T07:05:05.788Z,-0.94
2019-01-11T07:06:05.067Z,-0.94
2019-01-11T07:07:05.153Z,-0.94
2019-01-11T07:08:05.393Z,-0.94
2019-01-11T07:09:05.647Z,-0.94
2019-01-11T07:10:05.628Z,-0.94
2019-01-11T07:11:05.313Z,-0.88
2019-01-11T07:12:05.395Z,-0.88
2019-01-11T07:13:05.474Z,-0.88
2019-01-11T07:14:05.639Z,-0.88
2019-01-11T07:15:05.072Z,-0.88
2019-01-11T07:16:05.390Z,-0.88
2019-01-11T07:17:06.037Z,-0.88
2019-01-11T07:18:05.551Z,-0.88
2019-01-11T07:19:05.640Z,-0.88
2019-01-11T07:20:05.953Z,-0.88
2019-01-11T07:21:05.387Z,-0.88
2019-01-11T07:22:06.033Z,-0.88
2019-01-11T07:23:05.319Z,-0.81
2019-01-11T07:24:05.232Z,-0.81
2019-01-11T07:25:05.382Z,-0.81
2019-01-11T07:26:05.541Z,-0.81
2019-01-11T07:27:05.630Z,-0.81
2019-01-11T07:28:05.445Z,-0.81
2019-01-11T07:29:05.470Z,-0.81
2019-01-11T07:30:06.028Z,-0.81
2019-01-11T07:31:05.408Z,-0.81
2019-01-11T07:32:06.046Z,-0.81
2019-01-11T07:33:05.148Z,-0.81
2019-01-11T07:34:05.384Z,-0.81
2019-01-11T07:35:05.867Z,-0.75
2019-01-11T07:36:05.470Z,-0.75
2019-01-11T07:37:05.549Z,-0.75
2019-01-11T07:38:05.663Z,-0.75
2019-01-11T07:39:05.947Z,-0.75
2019-01-11T07:40:05.645Z,-0.75
2019-01-11T07:41:05.475Z,-0.75
2019-01-11T07:42:06.114Z,-0.75
2019-01-11T07:43:05.630Z,-0.75
2019-01-11T07:44:05.636Z,-0.75
2019-01-11T07:45:05.303Z,-0.75
2019-01-11T07:46:05.720Z,-0.75
2019-01-11T07:47:05.786Z,-0.69
2019-01-11T07:48:05.388Z,-0.69
2019-01-11T07:49:05.547Z,-0.69
2019-01-11T07:50:06.029Z,-0.69
2019-01-11T07:51:05.324Z,-0.69
2019-01-11T07:52:05.411Z,-0.69
2019-01-11T07:53:05.070Z,-0.69
2019-01-11T07:54:05.323Z,-0.69
2019-01-11T07:55:05.329Z,-0.69
2019-01-11T07:56:05.470Z,-0.62
2019-01-11T07:57:05.874Z,-0.62
2019-01-11T07:58:05.957Z,-0.62
2019-01-11T07:59:05.394Z,-0.62
2019-01-11T08:00:05.318Z,-0.62
2019-01-11T08:01:05.807Z,-0.62
2019-01-11T08:02:05.723Z,-0.56
2019-01-11T08:03:05.870Z,-0.56
2019-01-11T08:04:05.552Z,-0.56
2019-01-11T08:05:05.249Z,-0.56
2019-01-11T08:06:05.240Z,-0.56
2019-01-11T08:07:05.631Z,-0.56
2019-01-11T08:08:06.027Z,-0.56
2019-01-11T08:09:05.329Z,-0.56
2019-01-11T08:10:05.394Z,-0.56
2019-01-11T08:11:05.393Z,-0.56
2019-01-11T08:12:05.630Z,-0.56
2019-01-11T08:13:05.151Z,-0.56
2019-01-11T08:14:06.844Z,-0.56
2019-01-11T08:15:05.147Z,-0.56
2019-01-11T08:16:05.574Z,-0.50
2019-01-11T08:17:05.317Z,-0.50
2019-01-11T08:18:05.544Z,-0.50
2019-01-11T08:19:05.815Z,-0.50
2019-01-11T08:20:05.883Z,-0.50
2019-01-11T08:21:05.954Z,-0.50
2019-01-11T08:22:05.398Z,-0.50
2019-01-11T08:23:05.703Z,-0.50
2019-01-11T08:24:05.811Z,-0.50
2019-01-11T08:25:06.132Z,-0.50
2019-01-11T08:26:05.165Z,-0.44
2019-01-11T08:27:05.316Z,-0.44
2019-01-11T08:28:05.504Z,-0.44
2019-01-11T08:29:05.786Z,-0.44
2019-01-11T08:30:05.226Z,-0.44
2019-01-11T08:31:05.872Z,-0.44
2019-01-11T08:32:05.229Z,-0.44
2019-01-11T08:33:08.215Z,-0.44
2019-01-11T08:34:05.625Z,-0.44
2019-01-11T08:35:05.400Z,-0.44
2019-01-11T08:36:05.486Z,-0.38
2019-01-11T08:37:05.792Z,-0.38
2019-01-11T08:38:06.037Z,-0.38
2019-01-11T08:39:05.954Z,-0.38
2019-01-11T08:40:05.233Z,-0.38
2019-01-11T08:41:05.542Z,-0.38
2019-01-11T08:42:05.227Z,-0.38
2019-01-11T08:43:05.395Z,-0.38
2019-01-11T08:44:05.468Z,-0.31
2019-01-11T08:45:05.249Z,-0.31
2019-01-11T08:46:05.559Z,-0.31
2019-01-11T08:47:05.957Z,-0.31
2019-01-11T08:48:06.124Z,-0.31
2019-01-11T08:49:05.242Z,-0.31
2019-01-11T08:50:05.235Z,-0.25
2019-01-11T08:51:05.319Z,-0.25
2019-01-11T08:52:05.563Z,-0.25
2019-01-11T08:53:05.549Z,-0.25
2019-01-11T08:54:05.627Z,-0.19
2019-01-11T08:55:05.870Z,-0.19
2019-01-11T08:56:08.373Z,-0.19
2019-01-11T08:57:05.156Z,-0.19
2019-01-11T08:58:05.629Z,-0.19
2019-01-11T08:59:05.239Z,-0.19
2019-01-11T09:00:05.958Z,-0.12
2019-01-11T09:01:05.639Z,-0.12
2019-01-11T09:02:05.743Z,-0.12
2019-01-11T09:03:05.803Z,-0.12
2019-01-11T09:04:05.321Z,-0.12
2019-01-11T09:05:05.571Z,-0.12
2019-01-11T09:06:05.789Z,-0.12
2019-01-11T09:07:06.020Z,-0.06
2019-01-11T09:08:05.635Z,-0.06
2019-01-11T09:09:05.796Z,-0.06
2019-01-11T09:10:05.562Z,-0.06
2019-01-11T09:11:05.632Z,-0.06
2019-01-11T09:12:06.038Z,0.00
2019-01-11T09:13:05.314Z,-0.06
2019-01-11T09:14:05.802Z,-0.06
2019-01-11T09:15:05.710Z,0.00
2019-01-11T09:16:06.023Z,0.00
2019-01-11T09:17:05.888Z,0.00
2019-01-11T09:18:05.866Z,0.00
2019-01-11T09:19:05.149Z,0.00
2019-01-11T09:20:05.145Z,0.06
2019-01-11T09:21:09.292Z,0.06
2019-01-11T09:22:05.720Z,0.06
2019-01-11T09:23:05.151Z,0.06
2019-01-11T09:24:05.313Z,0.12
2019-01-11T09:25:05.836Z,0.06
2019-01-11T09:26:05.786Z,0.12
2019-01-11T09:27:05.229Z,0.12
2019-01-11T09:28:05.788Z,0.12
2019-01-11T09:29:05.567Z,0.12
2019-01-11T09:30:06.026Z,0.12
2019-01-11T09:31:05.228Z,0.19
2019-01-11T09:32:05.807Z,0.19
2019-01-11T09:33:05.874Z,0.19
2019-01-11T09:34:05.313Z,0.19
2019-01-11T09:35:05.553Z,0.19
2019-01-11T09:36:05.332Z,0.25
2019-01-11T09:37:05.334Z,0.25
2019-01-11T09:38:05.588Z,0.25
2019-01-11T09:39:05.077Z,0.25
2019-01-11T09:40:05.236Z,0.31
2019-01-11T09:41:05.399Z,0.31
2019-01-11T09:42:05.800Z,0.31
2019-01-11T09:43:05.779Z,0.31
2019-01-11T09:44:06.029Z,0.31
2019-01-11T09:45:05.651Z,0.31
2019-01-11T09:46:05.707Z,0.38
2019-01-11T09:47:05.376Z,0.31
2019-01-11T09:48:05.624Z,0.38
2019-01-11T09:49:05.070Z,0.38
2019-01-11T09:50:05.805Z,0.38
2019-01-11T09:51:05.786Z,0.38
2019-01-11T09:52:05.864Z,0.38
2019-01-11T09:53:05.389Z,0.38
2019-01-11T09:54:05.549Z,0.38
2019-01-11T09:55:05.540Z,0.44
2019-01-11T09:56:05.066Z,0.44
2019-01-11T09:57:05.539Z,0.44
2019-01-11T09:58:05.060Z,0.44
2019-01-11T09:59:05.238Z,0.44
2019-01-11T10:00:05.312Z,0.44
2019-01-11T10:01:05.646Z,0.50
2019-01-11T10:02:05.795Z,0.50
2019-01-11T10:03:05.303Z,0.50
2019-01-11T10:04:05.403Z,0.50
2019-01-11T10:05:05.733Z,0.50
2019-01-11T10:06:06.046Z,0.50
2019-01-11T10:07:05.723Z,0.56
2019-01-11T10:08:05.876Z,0.56
2019-01-11T10:09:05.877Z,0.56
2019-01-11T10:10:05.079Z,0.56
2019-01-11T10:11:05.224Z,0.56
2019-01-11T10:12:05.390Z,0.62
2019-01-11T10:13:05.648Z,0.62
2019-01-11T10:14:05.759Z,0.62
2019-01-11T10:15:05.798Z,0.69
2019-01-11T10:16:05.071Z,0.69
2019-01-11T10:17:05.243Z,0.69
2019-01-11T10:18:05.661Z,0.69
2019-01-11T10:19:05.638Z,0.69
2019-01-11T10:20:05.965Z,0.69
2019-01-11T10:21:06.103Z,0.75
2019-01-11T10:22:05.221Z,0.75
2019-01-11T10:23:05.154Z,0.75
2019-01-11T10:24:05.471Z,0.75
2019-01-11T10:25:05.495Z,0.81
2019-01-11T10:26:05.803Z,0.81
2019-01-11T10:27:05.319Z,0.81
2019-01-11T10:28:05.390Z,0.81
2019-01-11T10:29:05.516Z,0.81
2019-01-11T10:30:05.065Z,0.88
2019-01-11T10:31:05.559Z,0.88
2019-01-11T10:32:06.888Z,0.88
2019-01-11T10:33:05.402Z,0.88
2019-01-11T10:34:05.428Z,0.94
2019-01-11T10:35:05.409Z,0.94
2019-01-11T10:36:05.952Z,0.94
2019-01-11T10:37:05.546Z,0.94
2019-01-11T10:38:05.156Z,1.00
2019-01-11T10:39:06.130Z,1.00
2019-01-11T10:40:05.568Z,1.00
2019-01-11T10:41:05.480Z,1.00
2019-01-11T10:42:05.568Z,1.00
2019-01-11T10:43:05.870Z,1.00
2019-01-11T10:44:05.310Z,1.00
2019-01-11T10:45:05.484Z,1.00
2019-01-11T10:46:05.622Z,1.00
2019-01-11T10:47:05.161Z,1.06
2019-01-11T10:48:05.314Z,1.06
2019-01-11T10:49:05.485Z,1.06
2019-01-11T10:50:05.647Z,1.06
2019-01-11T10:51:05.517Z,1.06
2019-01-11T10:52:05.794Z,1.06
2019-01-11T10:53:05.153Z,1.06
2019-01-11T10:54:05.402Z,1.06
2019-01-11T10:55:05.385Z,1.06
2019-01-11T10:56:05.466Z,1.06
2019-01-11T10:57:05.949Z,1.06
2019-01-11T10:58:05.482Z,1.06
2019-01-11T10:59:05.554Z,1.06
2019-01-11T11:00:05.153Z,1.06
2019-01-11T11:01:05.320Z,1.06
2019-01-11T11:02:05.480Z,1.06
2019-01-11T11:03:05.382Z,1.06
2019-01-11T11:04:05.244Z,1.06
2019-01-11T11:05:05.231Z,1.06
2019-01-11T11:06:05.410Z,1.06
2019-01-11T11:07:05.710Z,1.06
2019-01-11T11:08:06.019Z,1.12
2019-01-11T11:09:05.221Z,1.12
2019-01-11T11:10:05.471Z,1.12
2019-01-11T11:11:05.857Z,1.12
2019-01-11T11:12:05.643Z,1.12
2019-01-11T11:13:05.640Z,1.12
2019-01-11T11:14:05.708Z,1.12
2019-01-11T11:15:05.871Z,1.12
2019-01-11T11:16:05.365Z,1.12
2019-01-11T11:17:05.472Z,1.12
2019-01-11T11:18:05.546Z,1.19
2019-01-11T11:19:05.233Z,1.19
2019-01-11T11:20:05.219Z,1.19
2019-01-11T11:21:05.347Z,1.19
2019-01-11T11:22:05.866Z,1.19
2019-01-11T11:23:05.140Z,1.25
2019-01-11T11:24:05.224Z,1.25
2019-01-11T11:25:05.955Z,1.25
2019-01-11T11:26:06.018Z,1.25
2019-01-11T11:27:05.140Z,1.25
2019-01-11T11:28:05.385Z,1.31
2019-01-11T11:29:05.777Z,1.31
2019-01-11T11:30:05.557Z,1.31
2019-01-11T11:31:05.703Z,1.31
2019-01-11T11:32:05.869Z,1.31
2019-01-11T11:33:06.032Z,1.38
2019-01-11T11:34:05.386Z,1.38
2019-01-11T11:35:05.804Z,1.38
2019-01-11T11:36:05.809Z,1.38
2019-01-11T11:37:05.466Z,1.44
2019-01-11T11:38:05.971Z,1.44
2019-01-11T11:39:05.234Z,1.44
2019-01-11T11:40:05.786Z,1.44
2019-01-11T11:41:05.893Z,1.44
2019-01-11T11:42:05.870Z,1.44
2019-01-11T11:43:05.069Z,1.44
2019-01-11T11:44:05.306Z,1.50
2019-01-11T11:45:05.706Z,1.50
2019-01-11T11:46:05.226Z,1.50
2019-01-11T11:47:06.660Z,1.56
2019-01-11T11:48:05.702Z,1.56
2019-01-11T11:49:05.149Z,1.56
2019-01-11T11:50:05.236Z,1.56
2019-01-11T11:51:05.946Z,1.56
2019-01-11T11:52:05.388Z,1.62
2019-01-11T11:53:05.967Z,1.62
2019-01-11T11:54:05.071Z,1.62
2019-01-11T11:55:05.384Z,1.62
2019-01-11T11:56:05.545Z,1.62
2019-01-11T11:57:05.890Z,1.62
2019-01-11T11:58:05.897Z,1.69
2019-01-11T11:59:05.147Z,1.69
2019-01-11T12:00:05.639Z,1.69
2019-01-11T12:01:05.784Z,1.69
2019-01-11T12:02:06.061Z,1.69
2019-01-11T12:03:05.166Z,1.69
2019-01-11T12:04:05.221Z,1.69
2019-01-11T12:05:05.397Z,1.69
2019-01-11T12:06:05.702Z,1.69
2019-01-11T12:07:07.662Z,1.69
2019-01-11T12:08:05.381Z,1.69
2019-01-11T12:09:05.940Z,1.69
2019-01-11T12:10:05.148Z,1.69
2019-01-11T12:11:05.383Z,1.69
2019-01-11T12:12:05.950Z,1.75
2019-01-11T12:13:05.633Z,1.69
2019-01-11T12:14:05.970Z,1.69
2019-01-11T12:15:05.314Z,1.69
2019-01-11T12:16:05.561Z,1.75
2019-01-11T12:17:05.638Z,1.75
2019-01-11T12:18:05.718Z,1.75
2019-01-11T12:19:05.331Z,1.75
2019-01-11T12:20:05.486Z,1.75
2019-01-11T12:21:05.863Z,1.75
2019-01-11T12:22:05.940Z,1.75
2019-01-11T12:23:05.548Z,1.75
2019-01-11T12:24:05.151Z,1.75
2019-01-11T12:25:05.151Z,1.75
2019-01-11T12:26:05.478Z,1.75
2019-01-11T12:27:05.727Z,1.75
2019-01-11T12:28:05.761Z,1.75
2019-01-11T12:29:05.082Z,1.75
2019-01-11T12:30:05.383Z,1.69
2019-01-11T12:31:05.954Z,1.75
2019-01-11T12:32:05.142Z,1.75
2019-01-11T12:33:05.328Z,1.75
2019-01-11T12:34:05.789Z,1.75
2019-01-11T12:35:05.251Z,1.75
2019-01-11T12:36:05.549Z,1.69
2019-01-11T12:37:06.042Z,1.69
2019-01-11T12:38:05.636Z,1.69
2019-01-11T12:39:05.783Z,1.69
2019-01-11T12:40:06.044Z,1.69
2019-01-11T12:41:05.247Z,1.69
2019-01-11T12:42:05.410Z,1.69
2019-01-11T12:43:05.321Z,1.69
2019-01-11T12:44:05.719Z,1.69
2019-01-11T12:45:05.880Z,1.69
2019-01-11T12:46:05.727Z,1.69
2019-01-11T12:47:05.160Z,1.69
2019-01-11T12:48:05.402Z,1.69
2019-01-11T12:49:05.316Z,1.69
2019-01-11T12:50:05.787Z,1.69
2019-01-11T12:51:05.244Z,1.69
2019-01-11T12:52:05.493Z,1.69
2019-01-11T12:53:05.497Z,1.69
2019-01-11T12:54:05.882Z,1.69
2019-01-11T12:55:05.620Z,1.69
2019-01-11T12:56:05.786Z,1.75
2019-01-11T12:57:05.876Z,1.75
2019-01-11T12:58:06.030Z,1.75
2019-01-11T12:59:05.323Z,1.75
2019-01-11T13:00:05.867Z,1.75